sensor_id;sensor_type;location;lat;lon;timestamp;temperature;humidity
11965;DHT22;6042;41.326;19.826;2023-10-09T00:01:00;19.50;99.90
11965;DHT22;6042;41.326;19.826;2023-10-09T00:03:33;19.40;99.90
11965;DHT22;6042;41.326;19.826;2023-10-09T00:06:04;19.40;99.90
11965;DHT22;6042;41.326;19.826;2023-10-09T00:08:33;19.30;99.90
11965;DHT22;6042;41.326;19.826;2023-10-09T00:11:05;19.30;99.90
11965;DHT22;6042;41.326;19.826;2023-10-09T00:13:45;19.40;99.90
11965;DHT22;6042;41.326;19.826;2023-10-09T00:16:21;19.20;99.90
11965;DHT22;6042;41.326;19.826;2023-10-09T00:19:01;19.20;99.90
11965;DHT22;6042;41.326;19.826;2023-10-09T00:21:42;19.20;99.90
11965;DHT22;6042;41.326;19.826;2023-10-09T00:24:11;18.90;99.90
11965;DHT22;6042;41.326;19.826;2023-10-09T00:26:52;18.90;99.90
11965;DHT22;6042;41.326;19.826;2023-10-09T00:29:23;18.90;99.90
11965;DHT22;6042;41.326;19.826;2023-10-09T00:31:57;18.90;99.90
11965;DHT22;6042;41.326;19.826;2023-10-09T00:34:40;18.90;99.90
11965;DHT22;6042;41.326;19.826;2023-10-09T00:37:10;18.90;99.90
11965;DHT22;6042;41.326;19.826;2023-10-09T00:39:44;18.80;99.90
11965;DHT22;6042;41.326;19.826;2023-10-09T00:42:15;18.80;99.90
11965;DHT22;6042;41.326;19.826;2023-10-09T00:44:55;18.90;99.90
11965;DHT22;6042;41.326;19.826;2023-10-09T00:47:25;19.10;99.90
11965;DHT22;6042;41.326;19.826;2023-10-09T00:50:03;19.20;99.90
11965;DHT22;6042;41.326;19.826;2023-10-09T00:52:39;19.20;99.90
11965;DHT22;6042;41.326;19.826;2023-10-09T00:55:12;19.10;99.90
11965;DHT22;6042;41.326;19.826;2023-10-09T00:57:50;19.10;99.90
11965;DHT22;6042;41.326;19.826;2023-10-09T01:00:25;19.00;99.90
11965;DHT22;6042;41.326;19.826;2023-10-09T01:03:16;18.90;99.90
11965;DHT22;6042;41.326;19.826;2023-10-09T01:05:50;18.80;99.90
11965;DHT22;6042;41.326;19.826;2023-10-09T01:08:26;18.70;99.90
11965;DHT22;6042;41.326;19.826;2023-10-09T01:10:59;18.60;99.90
11965;DHT22;6042;41.326;19.826;2023-10-09T01:13:37;18.60;99.90
11965;DHT22;6042;41.326;19.826;2023-10-09T01:16:21;18.50;99.90
11965;DHT22;6042;41.326;19.826;2023-10-09T01:18:54;18.50;99.90
11965;DHT22;6042;41.326;19.826;2023-10-09T01:21:26;18.50;99.90
11965;DHT22;6042;41.326;19.826;2023-10-09T01:24:01;18.50;99.90
11965;DHT22;6042;41.326;19.826;2023-10-09T01:26:38;18.40;99.90
11965;DHT22;6042;41.326;19.826;2023-10-09T01:29:15;18.40;99.90
11965;DHT22;6042;41.326;19.826;2023-10-09T01:31:49;18.40;99.90
11965;DHT22;6042;41.326;19.826;2023-10-09T01:34:23;18.50;99.90
11965;DHT22;6042;41.326;19.826;2023-10-09T01:37:07;18.60;99.90
11965;DHT22;6042;41.326;19.826;2023-10-09T01:39:41;18.40;99.90
11965;DHT22;6042;41.326;19.826;2023-10-09T01:42:10;18.40;99.90
11965;DHT22;6042;41.326;19.826;2023-10-09T01:44:51;18.30;99.90
11965;DHT22;6042;41.326;19.826;2023-10-09T01:47:21;18.20;99.90
11965;DHT22;6042;41.326;19.826;2023-10-09T01:49:51;18.20;99.90
11965;DHT22;6042;41.326;19.826;2023-10-09T01:52:22;18.10;99.90
11965;DHT22;6042;41.326;19.826;2023-10-09T01:54:55;18.00;99.90
11965;DHT22;6042;41.326;19.826;2023-10-09T01:57:32;17.90;99.90
11965;DHT22;6042;41.326;19.826;2023-10-09T02:00:01;17.90;99.90
11965;DHT22;6042;41.326;19.826;2023-10-09T02:02:38;17.80;99.90
11965;DHT22;6042;41.326;19.826;2023-10-09T02:05:12;17.80;99.90
11965;DHT22;6042;41.326;19.826;2023-10-09T02:07:52;17.90;99.90
11965;DHT22;6042;41.326;19.826;2023-10-09T02:10:23;18.00;99.90
11965;DHT22;6042;41.326;19.826;2023-10-09T02:13:04;18.00;99.90
11965;DHT22;6042;41.326;19.826;2023-10-09T02:15:36;18.00;99.90
11965;DHT22;6042;41.326;19.826;2023-10-09T02:18:21;18.00;99.90
11965;DHT22;6042;41.326;19.826;2023-10-09T02:21:08;18.10;99.90
11965;DHT22;6042;41.326;19.826;2023-10-09T02:23:43;18.30;99.90
11965;DHT22;6042;41.326;19.826;2023-10-09T02:26:19;18.30;99.90
11965;DHT22;6042;41.326;19.826;2023-10-09T02:28:54;18.30;99.90
11965;DHT22;6042;41.326;19.826;2023-10-09T02:31:28;18.10;99.90
11965;DHT22;6042;41.326;19.826;2023-10-09T02:34:05;18.00;99.90
11965;DHT22;6042;41.326;19.826;2023-10-09T02:36:40;18.00;99.90
11965;DHT22;6042;41.326;19.826;2023-10-09T02:39:17;17.80;99.90
11965;DHT22;6042;41.326;19.826;2023-10-09T02:41:53;17.70;99.90
11965;DHT22;6042;41.326;19.826;2023-10-09T02:44:28;17.70;99.90
11965;DHT22;6042;41.326;19.826;2023-10-09T02:47:02;17.80;99.90
11965;DHT22;6042;41.326;19.826;2023-10-09T02:49:33;17.90;99.90
11965;DHT22;6042;41.326;19.826;2023-10-09T02:52:06;18.00;99.90
11965;DHT22;6042;41.326;19.826;2023-10-09T02:54:35;17.90;99.90
11965;DHT22;6042;41.326;19.826;2023-10-09T02:57:10;17.90;99.90
11965;DHT22;6042;41.326;19.826;2023-10-09T02:59:49;17.80;99.90
11965;DHT22;6042;41.326;19.826;2023-10-09T03:02:19;17.90;99.90
11965;DHT22;6042;41.326;19.826;2023-10-09T03:04:51;18.00;99.90
11965;DHT22;6042;41.326;19.826;2023-10-09T03:07:22;17.90;99.90
11965;DHT22;6042;41.326;19.826;2023-10-09T03:09:51;18.00;99.90
11965;DHT22;6042;41.326;19.826;2023-10-09T03:12:22;17.90;99.90
11965;DHT22;6042;41.326;19.826;2023-10-09T03:14:55;17.90;99.90
11965;DHT22;6042;41.326;19.826;2023-10-09T03:17:28;17.90;99.90
11965;DHT22;6042;41.326;19.826;2023-10-09T03:19:57;17.80;99.90
11965;DHT22;6042;41.326;19.826;2023-10-09T03:22:27;17.70;99.90
11965;DHT22;6042;41.326;19.826;2023-10-09T03:24:58;17.80;99.90
11965;DHT22;6042;41.326;19.826;2023-10-09T03:27:28;17.80;99.90
11965;DHT22;6042;41.326;19.826;2023-10-09T03:29:57;17.80;99.90
11965;DHT22;6042;41.326;19.826;2023-10-09T03:32:26;17.80;99.90
11965;DHT22;6042;41.326;19.826;2023-10-09T03:34:56;17.80;99.90
11965;DHT22;6042;41.326;19.826;2023-10-09T03:37:27;17.80;99.90
11965;DHT22;6042;41.326;19.826;2023-10-09T03:40:02;17.70;99.90
11965;DHT22;6042;41.326;19.826;2023-10-09T03:42:36;17.60;99.90
11965;DHT22;6042;41.326;19.826;2023-10-09T03:45:10;17.50;99.90
11965;DHT22;6042;41.326;19.826;2023-10-09T03:47:53;17.50;99.90
11965;DHT22;6042;41.326;19.826;2023-10-09T03:50:30;17.50;99.90
11965;DHT22;6042;41.326;19.826;2023-10-09T03:53:06;17.30;99.90
11965;DHT22;6042;41.326;19.826;2023-10-09T03:55:36;17.10;99.90
11965;DHT22;6042;41.326;19.826;2023-10-09T03:58:08;17.00;99.90
11965;DHT22;6042;41.326;19.826;2023-10-09T04:00:39;16.90;99.90
11965;DHT22;6042;41.326;19.826;2023-10-09T04:03:13;17.00;99.90
11965;DHT22;6042;41.326;19.826;2023-10-09T04:05:43;17.00;99.90
11965;DHT22;6042;41.326;19.826;2023-10-09T04:08:13;16.90;99.90
11965;DHT22;6042;41.326;19.826;2023-10-09T04:10:49;16.90;99.90
11965;DHT22;6042;41.326;19.826;2023-10-09T04:13:26;17.00;99.90
11965;DHT22;6042;41.326;19.826;2023-10-09T04:16:02;17.00;99.90
11965;DHT22;6042;41.326;19.826;2023-10-09T04:18:37;17.00;99.90
11965;DHT22;6042;41.326;19.826;2023-10-09T04:21:07;17.10;99.90
11965;DHT22;6042;41.326;19.826;2023-10-09T04:23:47;17.20;99.90
11965;DHT22;6042;41.326;19.826;2023-10-09T04:26:37;17.30;99.90
11965;DHT22;6042;41.326;19.826;2023-10-09T04:29:14;17.30;99.90
11965;DHT22;6042;41.326;19.826;2023-10-09T04:31:46;17.30;99.90
11965;DHT22;6042;41.326;19.826;2023-10-09T04:34:20;17.40;99.90
11965;DHT22;6042;41.326;19.826;2023-10-09T04:36:56;17.30;99.90
11965;DHT22;6042;41.326;19.826;2023-10-09T04:39:29;17.30;99.90
11965;DHT22;6042;41.326;19.826;2023-10-09T04:42:14;17.30;99.90
11965;DHT22;6042;41.326;19.826;2023-10-09T04:45:06;17.20;99.90
11965;DHT22;6042;41.326;19.826;2023-10-09T04:47:54;17.10;99.90
11965;DHT22;6042;41.326;19.826;2023-10-09T04:50:34;17.20;99.90
11965;DHT22;6042;41.326;19.826;2023-10-09T04:53:34;17.10;99.90
11965;DHT22;6042;41.326;19.826;2023-10-09T04:56:12;17.10;99.90
11965;DHT22;6042;41.326;19.826;2023-10-09T04:58:44;17.00;99.90
11965;DHT22;6042;41.326;19.826;2023-10-09T05:01:18;17.10;99.90
11965;DHT22;6042;41.326;19.826;2023-10-09T05:04:05;17.10;99.90
11965;DHT22;6042;41.326;19.826;2023-10-09T05:06:47;17.10;99.90
11965;DHT22;6042;41.326;19.826;2023-10-09T05:09:23;17.20;99.90
11965;DHT22;6042;41.326;19.826;2023-10-09T05:11:54;17.20;99.90
11965;DHT22;6042;41.326;19.826;2023-10-09T05:14:43;17.30;99.90
11965;DHT22;6042;41.326;19.826;2023-10-09T05:17:23;17.40;99.90
11965;DHT22;6042;41.326;19.826;2023-10-09T05:19:53;17.50;99.90
11965;DHT22;6042;41.326;19.826;2023-10-09T05:22:44;17.60;99.90
11965;DHT22;6042;41.326;19.826;2023-10-09T05:25:26;17.70;99.90
11965;DHT22;6042;41.326;19.826;2023-10-09T05:28:12;17.70;99.90
11965;DHT22;6042;41.326;19.826;2023-10-09T05:30:55;17.70;99.90
11965;DHT22;6042;41.326;19.826;2023-10-09T05:33:36;17.70;99.90
11965;DHT22;6042;41.326;19.826;2023-10-09T05:36:07;17.80;99.90
11965;DHT22;6042;41.326;19.826;2023-10-09T05:38:54;17.80;99.90
11965;DHT22;6042;41.326;19.826;2023-10-09T05:41:46;17.90;99.90
11965;DHT22;6042;41.326;19.826;2023-10-09T05:44:35;18.00;99.90
11965;DHT22;6042;41.326;19.826;2023-10-09T05:47:27;18.10;99.90
11965;DHT22;6042;41.326;19.826;2023-10-09T05:50:01;18.10;99.90
11965;DHT22;6042;41.326;19.826;2023-10-09T05:52:44;18.10;99.90
11965;DHT22;6042;41.326;19.826;2023-10-09T05:55:31;18.20;99.90
11965;DHT22;6042;41.326;19.826;2023-10-09T05:58:21;18.30;99.90
11965;DHT22;6042;41.326;19.826;2023-10-09T06:01:07;18.40;99.90
11965;DHT22;6042;41.326;19.826;2023-10-09T06:03:54;18.50;99.90
11965;DHT22;6042;41.326;19.826;2023-10-09T06:06:33;18.60;99.90
11965;DHT22;6042;41.326;19.826;2023-10-09T06:09:12;18.70;99.90
11965;DHT22;6042;41.326;19.826;2023-10-09T06:12:00;18.60;99.90
11965;DHT22;6042;41.326;19.826;2023-10-09T06:14:46;18.70;99.90
11965;DHT22;6042;41.326;19.826;2023-10-09T06:17:25;18.70;99.90
11965;DHT22;6042;41.326;19.826;2023-10-09T06:20:11;18.90;99.90
11965;DHT22;6042;41.326;19.826;2023-10-09T06:22:55;19.20;99.90
11965;DHT22;6042;41.326;19.826;2023-10-09T06:25:43;19.30;99.90
11965;DHT22;6042;41.326;19.826;2023-10-09T06:28:19;19.30;99.90
11965;DHT22;6042;41.326;19.826;2023-10-09T06:31:00;19.50;99.90
11965;DHT22;6042;41.326;19.826;2023-10-09T06:33:50;19.50;99.90
11965;DHT22;6042;41.326;19.826;2023-10-09T06:36:43;19.60;99.90
11965;DHT22;6042;41.326;19.826;2023-10-09T06:39:22;19.60;99.90
11965;DHT22;6042;41.326;19.826;2023-10-09T06:42:09;19.60;99.90
11965;DHT22;6042;41.326;19.826;2023-10-09T06:45:00;19.60;99.90
11965;DHT22;6042;41.326;19.826;2023-10-09T06:47:32;19.70;99.90
11965;DHT22;6042;41.326;19.826;2023-10-09T06:50:09;19.90;99.90
11965;DHT22;6042;41.326;19.826;2023-10-09T06:52:53;19.90;99.90
11965;DHT22;6042;41.326;19.826;2023-10-09T06:55:45;20.00;99.90
11965;DHT22;6042;41.326;19.826;2023-10-09T06:58:20;20.10;99.90
11965;DHT22;6042;41.326;19.826;2023-10-09T07:00:54;20.30;99.90
11965;DHT22;6042;41.326;19.826;2023-10-09T07:03:47;20.40;99.90
11965;DHT22;6042;41.326;19.826;2023-10-09T07:06:21;20.40;99.90
11965;DHT22;6042;41.326;19.826;2023-10-09T07:09:14;20.50;99.90
11965;DHT22;6042;41.326;19.826;2023-10-09T07:11:50;20.60;99.90
11965;DHT22;6042;41.326;19.826;2023-10-09T07:14:26;20.70;99.90
11965;DHT22;6042;41.326;19.826;2023-10-09T07:17:27;20.80;99.90
11965;DHT22;6042;41.326;19.826;2023-10-09T07:20:10;20.90;99.90
11965;DHT22;6042;41.326;19.826;2023-10-09T07:23:02;20.90;99.90
11965;DHT22;6042;41.326;19.826;2023-10-09T07:25:42;21.10;99.90
11965;DHT22;6042;41.326;19.826;2023-10-09T07:28:24;21.20;99.90
11965;DHT22;6042;41.326;19.826;2023-10-09T07:31:18;21.30;99.90
11965;DHT22;6042;41.326;19.826;2023-10-09T07:33:55;21.40;99.90
11965;DHT22;6042;41.326;19.826;2023-10-09T07:36:28;21.60;99.80
11965;DHT22;6042;41.326;19.826;2023-10-09T07:39:06;21.70;99.90
11965;DHT22;6042;41.326;19.826;2023-10-09T07:41:45;21.80;99.60
11965;DHT22;6042;41.326;19.826;2023-10-09T07:44:25;21.90;99.10
11965;DHT22;6042;41.326;19.826;2023-10-09T07:47:04;22.00;99.10
11965;DHT22;6042;41.326;19.826;2023-10-09T07:49:56;22.10;98.80
11965;DHT22;6042;41.326;19.826;2023-10-09T07:52:26;22.20;98.40
11965;DHT22;6042;41.326;19.826;2023-10-09T07:54:56;22.40;98.20
11965;DHT22;6042;41.326;19.826;2023-10-09T07:57:34;22.50;98.10
11965;DHT22;6042;41.326;19.826;2023-10-09T08:00:21;22.60;97.70
11965;DHT22;6042;41.326;19.826;2023-10-09T08:03:25;22.80;97.80
11965;DHT22;6042;41.326;19.826;2023-10-09T08:06:00;22.90;97.20
11965;DHT22;6042;41.326;19.826;2023-10-09T08:08:57;22.80;97.20
11965;DHT22;6042;41.326;19.826;2023-10-09T08:11:49;22.90;97.50
11965;DHT22;6042;41.326;19.826;2023-10-09T08:14:36;23.10;97.90
11965;DHT22;6042;41.326;19.826;2023-10-09T08:17:20;23.20;97.50
11965;DHT22;6042;41.326;19.826;2023-10-09T08:19:50;23.30;97.20
11965;DHT22;6042;41.326;19.826;2023-10-09T08:22:26;23.40;96.50
11965;DHT22;6042;41.326;19.826;2023-10-09T08:25:19;23.30;96.80
11965;DHT22;6042;41.326;19.826;2023-10-09T08:28:00;23.20;96.80
11965;DHT22;6042;41.326;19.826;2023-10-09T08:30:43;23.40;96.60
11965;DHT22;6042;41.326;19.826;2023-10-09T08:33:34;23.50;95.80
11965;DHT22;6042;41.326;19.826;2023-10-09T08:36:13;23.60;95.70
11965;DHT22;6042;41.326;19.826;2023-10-09T08:38:50;23.70;95.80
11965;DHT22;6042;41.326;19.826;2023-10-09T08:41:25;23.80;95.50
11965;DHT22;6042;41.326;19.826;2023-10-09T08:43:58;24.00;94.80
11965;DHT22;6042;41.326;19.826;2023-10-09T08:46:27;24.10;94.30
11965;DHT22;6042;41.326;19.826;2023-10-09T08:48:59;24.20;94.30
11965;DHT22;6042;41.326;19.826;2023-10-09T08:51:33;24.30;94.40
11965;DHT22;6042;41.326;19.826;2023-10-09T08:54:03;24.40;95.40
11965;DHT22;6042;41.326;19.826;2023-10-09T08:56:32;24.50;96.30
11965;DHT22;6042;41.326;19.826;2023-10-09T08:59:02;24.60;96.70
11965;DHT22;6042;41.326;19.826;2023-10-09T09:01:32;24.70;96.20
11965;DHT22;6042;41.326;19.826;2023-10-09T09:04:04;24.70;96.40
11965;DHT22;6042;41.326;19.826;2023-10-09T09:06:37;24.80;96.30
11965;DHT22;6042;41.326;19.826;2023-10-09T09:09:12;24.80;95.90
11965;DHT22;6042;41.326;19.826;2023-10-09T09:11:44;24.80;95.40
11965;DHT22;6042;41.326;19.826;2023-10-09T09:14:17;24.80;95.30
11965;DHT22;6042;41.326;19.826;2023-10-09T09:16:49;24.80;95.40
11965;DHT22;6042;41.326;19.826;2023-10-09T09:19:31;24.90;95.10
11965;DHT22;6042;41.326;19.826;2023-10-09T09:22:00;24.90;95.10
11965;DHT22;6042;41.326;19.826;2023-10-09T09:24:39;24.90;95.10
11965;DHT22;6042;41.326;19.826;2023-10-09T09:27:13;25.00;94.90
11965;DHT22;6042;41.326;19.826;2023-10-09T09:29:46;25.10;94.70
11965;DHT22;6042;41.326;19.826;2023-10-09T09:32:29;25.20;94.30
11965;DHT22;6042;41.326;19.826;2023-10-09T09:35:12;25.30;94.20
11965;DHT22;6042;41.326;19.826;2023-10-09T09:37:53;25.40;94.10
11965;DHT22;6042;41.326;19.826;2023-10-09T09:40:22;25.50;93.80
11965;DHT22;6042;41.326;19.826;2023-10-09T09:43:02;25.50;93.60
11965;DHT22;6042;41.326;19.826;2023-10-09T09:45:35;25.50;93.60
11965;DHT22;6042;41.326;19.826;2023-10-09T09:48:05;25.60;92.90
11965;DHT22;6042;41.326;19.826;2023-10-09T09:50:40;25.70;92.80
11965;DHT22;6042;41.326;19.826;2023-10-09T09:53:12;25.90;91.70
11965;DHT22;6042;41.326;19.826;2023-10-09T09:55:50;26.00;90.70
11965;DHT22;6042;41.326;19.826;2023-10-09T09:58:27;26.00;89.50
11965;DHT22;6042;41.326;19.826;2023-10-09T10:01:03;26.10;85.90
11965;DHT22;6042;41.326;19.826;2023-10-09T10:03:46;26.20;83.50
11965;DHT22;6042;41.326;19.826;2023-10-09T10:06:21;26.30;81.70
11965;DHT22;6042;41.326;19.826;2023-10-09T10:08:54;26.40;81.70
11965;DHT22;6042;41.326;19.826;2023-10-09T10:11:42;26.50;81.50
11965;DHT22;6042;41.326;19.826;2023-10-09T10:14:13;26.60;81.60
11965;DHT22;6042;41.326;19.826;2023-10-09T10:17:03;26.60;79.80
11965;DHT22;6042;41.326;19.826;2023-10-09T10:20:02;26.80;80.90
11965;DHT22;6042;41.326;19.826;2023-10-09T10:23:18;26.80;80.00
11965;DHT22;6042;41.326;19.826;2023-10-09T10:25:50;26.80;79.80
11965;DHT22;6042;41.326;19.826;2023-10-09T10:28:28;26.80;79.20
11965;DHT22;6042;41.326;19.826;2023-10-09T10:31:06;26.90;77.90
11965;DHT22;6042;41.326;19.826;2023-10-09T10:34:05;27.10;75.30
11965;DHT22;6042;41.326;19.826;2023-10-09T10:36:38;27.10;74.60
11965;DHT22;6042;41.326;19.826;2023-10-09T10:39:13;27.20;75.10
11965;DHT22;6042;41.326;19.826;2023-10-09T10:41:53;27.40;73.90
11965;DHT22;6042;41.326;19.826;2023-10-09T10:44:29;27.50;72.20
11965;DHT22;6042;41.326;19.826;2023-10-09T10:47:08;27.60;71.40
11965;DHT22;6042;41.326;19.826;2023-10-09T10:49:52;27.60;72.40
11965;DHT22;6042;41.326;19.826;2023-10-09T10:52:27;27.60;71.60
11965;DHT22;6042;41.326;19.826;2023-10-09T10:55:13;27.80;72.00
11965;DHT22;6042;41.326;19.826;2023-10-09T10:58:15;27.90;70.10
11965;DHT22;6042;41.326;19.826;2023-10-09T11:00:54;28.10;70.90
11965;DHT22;6042;41.326;19.826;2023-10-09T11:03:37;28.10;70.90
11965;DHT22;6042;41.326;19.826;2023-10-09T11:06:26;28.30;70.20
11965;DHT22;6042;41.326;19.826;2023-10-09T11:09:06;28.50;69.30
11965;DHT22;6042;41.326;19.826;2023-10-09T11:11:51;28.50;69.40
11965;DHT22;6042;41.326;19.826;2023-10-09T11:14:23;28.40;69.60
11965;DHT22;6042;41.326;19.826;2023-10-09T11:16:52;28.50;69.90
11965;DHT22;6042;41.326;19.826;2023-10-09T11:19:26;28.50;69.10
11965;DHT22;6042;41.326;19.826;2023-10-09T11:22:00;28.50;68.70
11965;DHT22;6042;41.326;19.826;2023-10-09T11:24:50;28.60;67.70
11965;DHT22;6042;41.326;19.826;2023-10-09T11:27:41;28.60;67.70
11965;DHT22;6042;41.326;19.826;2023-10-09T11:30:18;28.70;67.10
11965;DHT22;6042;41.326;19.826;2023-10-09T11:33:04;28.90;68.70
11965;DHT22;6042;41.326;19.826;2023-10-09T11:35:34;28.90;65.80
11965;DHT22;6042;41.326;19.826;2023-10-09T11:38:03;29.10;65.60
11965;DHT22;6042;41.326;19.826;2023-10-09T11:40:49;29.10;64.90
11965;DHT22;6042;41.326;19.826;2023-10-09T11:43:52;29.10;64.70
11965;DHT22;6042;41.326;19.826;2023-10-09T11:46:22;28.90;65.10
11965;DHT22;6042;41.326;19.826;2023-10-09T11:49:17;29.10;64.10
11965;DHT22;6042;41.326;19.826;2023-10-09T11:52:06;29.20;62.70
11965;DHT22;6042;41.326;19.826;2023-10-09T11:54:52;29.20;61.70
11965;DHT22;6042;41.326;19.826;2023-10-09T11:57:25;29.30;61.90
11965;DHT22;6042;41.326;19.826;2023-10-09T12:00:02;29.30;62.80
11965;DHT22;6042;41.326;19.826;2023-10-09T12:02:40;29.40;60.50
11965;DHT22;6042;41.326;19.826;2023-10-09T12:05:12;29.50;60.60
11965;DHT22;6042;41.326;19.826;2023-10-09T12:07:45;29.40;61.80
11965;DHT22;6042;41.326;19.826;2023-10-09T12:10:14;29.60;60.10
11965;DHT22;6042;41.326;19.826;2023-10-09T12:12:52;29.50;61.20
11965;DHT22;6042;41.326;19.826;2023-10-09T12:15:25;29.60;59.30
11965;DHT22;6042;41.326;19.826;2023-10-09T12:18:01;29.70;59.30
11965;DHT22;6042;41.326;19.826;2023-10-09T12:20:29;29.80;59.80
11965;DHT22;6042;41.326;19.826;2023-10-09T12:22:59;29.70;58.70
11965;DHT22;6042;41.326;19.826;2023-10-09T12:25:28;29.60;58.80
11965;DHT22;6042;41.326;19.826;2023-10-09T12:28:01;29.60;59.20
11965;DHT22;6042;41.326;19.826;2023-10-09T12:30:32;29.60;58.40
11965;DHT22;6042;41.326;19.826;2023-10-09T12:33:08;29.50;58.20
11965;DHT22;6042;41.326;19.826;2023-10-09T12:35:38;29.60;58.30
11965;DHT22;6042;41.326;19.826;2023-10-09T12:38:07;29.80;58.80
11965;DHT22;6042;41.326;19.826;2023-10-09T12:40:39;29.70;58.80
11965;DHT22;6042;41.326;19.826;2023-10-09T12:43:20;29.80;58.40
11965;DHT22;6042;41.326;19.826;2023-10-09T12:45:51;29.60;58.70
11965;DHT22;6042;41.326;19.826;2023-10-09T12:48:24;29.70;58.60
11965;DHT22;6042;41.326;19.826;2023-10-09T12:50:53;29.80;58.40
11965;DHT22;6042;41.326;19.826;2023-10-09T12:53:22;29.70;58.50
11965;DHT22;6042;41.326;19.826;2023-10-09T12:55:58;29.70;60.00
11965;DHT22;6042;41.326;19.826;2023-10-09T12:58:27;29.60;59.50
11965;DHT22;6042;41.326;19.826;2023-10-09T13:00:58;29.80;59.30
11965;DHT22;6042;41.326;19.826;2023-10-09T13:03:39;29.90;59.10
11965;DHT22;6042;41.326;19.826;2023-10-09T13:06:08;29.80;59.30
11965;DHT22;6042;41.326;19.826;2023-10-09T13:08:38;29.90;59.60
11965;DHT22;6042;41.326;19.826;2023-10-09T13:11:09;29.80;59.80
11965;DHT22;6042;41.326;19.826;2023-10-09T13:13:40;29.70;60.30
11965;DHT22;6042;41.326;19.826;2023-10-09T13:16:13;29.40;61.90
11965;DHT22;6042;41.326;19.826;2023-10-09T13:18:53;29.40;62.60
11965;DHT22;6042;41.326;19.826;2023-10-09T13:21:23;29.50;63.40
11965;DHT22;6042;41.326;19.826;2023-10-09T13:23:53;29.30;64.60
11965;DHT22;6042;41.326;19.826;2023-10-09T13:26:25;29.40;64.80
11965;DHT22;6042;41.326;19.826;2023-10-09T13:29:02;29.30;64.20
11965;DHT22;6042;41.326;19.826;2023-10-09T13:31:33;29.10;64.40
11965;DHT22;6042;41.326;19.826;2023-10-09T13:34:07;29.20;64.10
11965;DHT22;6042;41.326;19.826;2023-10-09T13:36:37;29.10;64.00
11965;DHT22;6042;41.326;19.826;2023-10-09T13:39:07;29.00;65.20
11965;DHT22;6042;41.326;19.826;2023-10-09T13:41:53;28.90;64.60
11965;DHT22;6042;41.326;19.826;2023-10-09T13:44:28;28.80;66.40
11965;DHT22;6042;41.326;19.826;2023-10-09T13:46:59;28.80;65.70
11965;DHT22;6042;41.326;19.826;2023-10-09T13:49:34;28.80;66.10
11965;DHT22;6042;41.326;19.826;2023-10-09T13:52:10;28.70;65.80
11965;DHT22;6042;41.326;19.826;2023-10-09T13:54:45;28.70;66.40
11965;DHT22;6042;41.326;19.826;2023-10-09T13:57:17;28.60;66.20
11965;DHT22;6042;41.326;19.826;2023-10-09T13:59:50;28.60;67.10
11965;DHT22;6042;41.326;19.826;2023-10-09T14:02:21;28.50;67.20
11965;DHT22;6042;41.326;19.826;2023-10-09T14:04:53;28.30;67.70
11965;DHT22;6042;41.326;19.826;2023-10-09T14:07:24;28.30;67.40
11965;DHT22;6042;41.326;19.826;2023-10-09T14:09:53;28.20;67.60
11965;DHT22;6042;41.326;19.826;2023-10-09T14:12:35;28.00;68.20
11965;DHT22;6042;41.326;19.826;2023-10-09T14:15:09;27.80;68.50
11965;DHT22;6042;41.326;19.826;2023-10-09T14:17:46;27.70;69.20
11965;DHT22;6042;41.326;19.826;2023-10-09T14:20:23;27.50;69.00
11965;DHT22;6042;41.326;19.826;2023-10-09T14:22:59;27.50;69.30
11965;DHT22;6042;41.326;19.826;2023-10-09T14:25:34;27.70;68.90
11965;DHT22;6042;41.326;19.826;2023-10-09T14:28:06;27.70;68.80
11965;DHT22;6042;41.326;19.826;2023-10-09T14:30:36;27.60;67.20
11965;DHT22;6042;41.326;19.826;2023-10-09T14:33:12;27.50;68.60
11965;DHT22;6042;41.326;19.826;2023-10-09T14:35:44;27.30;68.00
11965;DHT22;6042;41.326;19.826;2023-10-09T14:38:13;27.20;68.50
11965;DHT22;6042;41.326;19.826;2023-10-09T14:40:43;27.20;68.60
11965;DHT22;6042;41.326;19.826;2023-10-09T14:43:12;27.20;68.80
11965;DHT22;6042;41.326;19.826;2023-10-09T14:45:48;27.10;69.40
11965;DHT22;6042;41.326;19.826;2023-10-09T14:48:19;27.00;70.00
11965;DHT22;6042;41.326;19.826;2023-10-09T14:50:55;27.10;70.00
11965;DHT22;6042;41.326;19.826;2023-10-09T14:53:32;27.00;70.30
11965;DHT22;6042;41.326;19.826;2023-10-09T14:56:02;27.00;71.50
11965;DHT22;6042;41.326;19.826;2023-10-09T14:58:36;26.90;71.80
11965;DHT22;6042;41.326;19.826;2023-10-09T15:01:10;26.70;72.40
11965;DHT22;6042;41.326;19.826;2023-10-09T15:03:42;26.60;72.90
11965;DHT22;6042;41.326;19.826;2023-10-09T15:06:11;26.50;73.70
11965;DHT22;6042;41.326;19.826;2023-10-09T15:08:43;26.50;73.90
11965;DHT22;6042;41.326;19.826;2023-10-09T15:11:13;26.40;74.10
11965;DHT22;6042;41.326;19.826;2023-10-09T15:13:42;26.40;74.50
11965;DHT22;6042;41.326;19.826;2023-10-09T15:16:11;26.30;74.40
11965;DHT22;6042;41.326;19.826;2023-10-09T15:18:42;26.30;74.10
11965;DHT22;6042;41.326;19.826;2023-10-09T15:21:11;26.20;74.30
11965;DHT22;6042;41.326;19.826;2023-10-09T15:23:42;26.20;74.20
11965;DHT22;6042;41.326;19.826;2023-10-09T15:26:12;26.10;74.10
11965;DHT22;6042;41.326;19.826;2023-10-09T15:28:44;26.10;73.30
11965;DHT22;6042;41.326;19.826;2023-10-09T15:31:13;26.10;73.80
11965;DHT22;6042;41.326;19.826;2023-10-09T15:33:45;26.00;74.20
11965;DHT22;6042;41.326;19.826;2023-10-09T15:36:16;25.90;74.60
11965;DHT22;6042;41.326;19.826;2023-10-09T15:38:47;25.80;75.10
11965;DHT22;6042;41.326;19.826;2023-10-09T15:41:17;25.60;76.40
11965;DHT22;6042;41.326;19.826;2023-10-09T15:43:48;25.50;78.40
11965;DHT22;6042;41.326;19.826;2023-10-09T15:46:19;25.30;80.20
11965;DHT22;6042;41.326;19.826;2023-10-09T15:48:52;25.20;81.20
11965;DHT22;6042;41.326;19.826;2023-10-09T15:51:24;25.20;82.30
11965;DHT22;6042;41.326;19.826;2023-10-09T15:53:53;25.00;84.10
11965;DHT22;6042;41.326;19.826;2023-10-09T15:56:26;25.00;85.30
11965;DHT22;6042;41.326;19.826;2023-10-09T15:58:55;24.90;86.50
11965;DHT22;6042;41.326;19.826;2023-10-09T16:01:27;24.80;87.60
11965;DHT22;6042;41.326;19.826;2023-10-09T16:03:57;24.60;88.10
11965;DHT22;6042;41.326;19.826;2023-10-09T16:06:27;24.60;87.90
11965;DHT22;6042;41.326;19.826;2023-10-09T16:08:58;24.50;88.50
11965;DHT22;6042;41.326;19.826;2023-10-09T16:11:27;24.40;89.10
11965;DHT22;6042;41.326;19.826;2023-10-09T16:14:01;24.40;89.70
11965;DHT22;6042;41.326;19.826;2023-10-09T16:16:35;24.30;90.60
11965;DHT22;6042;41.326;19.826;2023-10-09T16:19:11;24.10;90.40
11965;DHT22;6042;41.326;19.826;2023-10-09T16:21:42;24.10;90.80
11965;DHT22;6042;41.326;19.826;2023-10-09T16:24:11;24.00;90.80
11965;DHT22;6042;41.326;19.826;2023-10-09T16:26:43;24.00;90.50
11965;DHT22;6042;41.326;19.826;2023-10-09T16:29:18;23.90;90.60